Time;durP1;ratioP1;P1;durP2;ratioP2;P2;SDS_P1;SDS_P2;PMS_P1;PMS_P2;Temp;Humidity;BMP_temperature;BMP_pressure;BME280_temperature;BME280_humidity;BME280_pressure;Samples;Min_cycle;Max_cycle;Signal;HPM_P1;HPM_P2
2022/05/02 00:02:15;;;;;;;0.52;0.52;;;12.40;99.90;;;;;;4423460;32;20073;-67
2022/05/02 00:04:41;;;;;;;0.30;0.30;;;12.40;99.90;;;;;;4430398;32;20060;-67
2022/05/02 00:07:06;;;;;;;0.45;0.45;;;12.40;99.70;;;;;;4425989;32;20803;-67
2022/05/02 00:09:31;;;;;;;28.15;0.77;;;12.40;99.90;;;;;;4428421;32;20089;-66
2022/05/02 00:11:58;;;;;;;3.83;1.00;;;12.40;99.90;;;;;;4426440;32;20119;-66
2022/05/02 00:14:24;;;;;;;0.40;0.40;;;12.30;99.90;;;;;;4426196;32;20093;-66
2022/05/02 00:16:49;;;;;;;0.30;0.30;;;12.30;99.80;;;;;;4425244;32;20073;-67
2022/05/02 00:19:14;;;;;;;5.15;0.85;;;12.30;99.90;;;;;;4433495;32;20078;-67
2022/05/02 00:21:40;;;;;;;1.48;0.60;;;12.20;99.90;;;;;;4413914;32;20446;-67
2022/05/02 00:24:07;;;;;;;0.60;0.60;;;12.20;99.90;;;;;;4426030;32;20136;-67
2022/05/02 00:26:32;;;;;;;5.05;1.45;;;12.20;99.90;;;;;;4427925;32;20223;-67
2022/05/02 00:28:58;;;;;;;9.73;1.70;;;12.20;99.90;;;;;;4410051;32;20651;-66
2022/05/02 00:31:23;;;;;;;0.60;0.60;;;12.10;99.90;;;;;;4418613;32;20069;-67
2022/05/02 00:33:49;;;;;;;0.68;0.68;;;12.20;99.80;;;;;;4429901;32;20127;-66
2022/05/02 00:36:15;;;;;;;3.30;0.70;;;12.20;99.60;;;;;;4428577;32;20525;-67
2022/05/02 00:38:41;;;;;;;0.40;0.40;;;12.20;99.60;;;;;;4423205;32;20085;-67
2022/05/02 00:41:07;;;;;;;0.37;0.37;;;12.20;99.50;;;;;;4421169;32;20069;-66
2022/05/02 00:43:32;;;;;;;0.40;0.40;;;12.20;99.60;;;;;;4423237;32;20056;-66
2022/05/02 00:45:59;;;;;;;2.53;1.70;;;12.30;99.30;;;;;;4425954;32;20065;-66
2022/05/02 00:48:25;;;;;;;0.28;0.28;;;12.30;99.30;;;;;;4425708;32;21242;-66
2022/05/02 00:50:51;;;;;;;0.20;0.20;;;12.20;99.50;;;;;;4423093;32;20069;-66
2022/05/02 00:53:22;;;;;;;0.90;0.50;;;12.20;99.90;;;;;;4429815;32;20471;-67
2022/05/02 00:55:48;;;;;;;0.60;0.60;;;12.20;99.40;;;;;;4434922;32;20074;-67
2022/05/02 00:58:15;;;;;;;0.40;0.40;;;12.20;99.20;;;;;;4416393;32;20097;-67
2022/05/02 01:00:41;;;;;;;0.93;0.65;;;12.30;99.50;;;;;;4412790;32;20147;-68
2022/05/02 01:03:09;;;;;;;0.30;0.30;;;12.30;99.10;;;;;;4427805;32;20096;-67
2022/05/02 01:07:08;;;;;;;0.55;0.55;;;12.30;99.30;;;;;;4427620;32;20098;-67
2022/05/02 01:08:26;;;;;;;0.90;0.82;;;12.40;99.30;;;;;;4412779;32;20081;-68
2022/05/02 01:10:54;;;;;;;1.42;1.10;;;12.40;99.10;;;;;;4424865;32;20132;-67
2022/05/02 01:13:42;;;;;;;0.30;0.30;;;12.20;99.20;;;;;;4424177;32;20475;-67
2022/05/02 01:16:18;;;;;;;0.40;0.40;;;12.10;99.60;;;;;;4421691;32;20105;-67
2022/05/02 01:18:45;;;;;;;0.40;0.40;;;12.10;99.20;;;;;;4421879;32;20103;-67
2022/05/02 01:21:16;;;;;;;0.50;0.50;;;12.10;98.80;;;;;;4423554;32;20106;-67
2022/05/02 01:23:44;;;;;;;0.60;0.60;;;12.10;99.10;;;;;;4409794;32;20088;-67
2022/05/02 01:26:10;;;;;;;0.40;0.40;;;12.20;99.10;;;;;;4410630;32;20100;-67
2022/05/02 01:28:53;;;;;;;0.52;0.40;;;12.10;98.70;;;;;;4410977;32;20081;-67
2022/05/02 01:31:20;;;;;;;0.40;0.40;;;11.90;99.20;;;;;;4411302;32;20181;-67
2022/05/02 01:33:47;;;;;;;0.85;0.85;;;11.70;99.70;;;;;;4423661;32;20085;-67
2022/05/02 01:36:12;;;;;;;0.50;0.50;;;11.60;99.90;;;;;;4425664;32;20065;-67
2022/05/02 01:38:38;;;;;;;1.75;1.15;;;11.60;99.30;;;;;;4422722;32;20077;-67
2022/05/02 01:41:06;;;;;;;1.08;0.50;;;11.70;99.90;;;;;;4422489;32;20117;-67
2022/05/02 01:43:32;;;;;;;0.47;0.47;;;11.70;99.40;;;;;;4424174;32;20092;-67
2022/05/02 01:45:59;;;;;;;0.57;0.57;;;11.60;99.50;;;;;;4425577;32;20514;-67
2022/05/02 01:48:25;;;;;;;0.55;0.55;;;11.50;99.90;;;;;;4419252;32;20102;-67
2022/05/02 01:50:51;;;;;;;0.20;0.20;;;11.60;99.90;;;;;;4420840;32;20136;-67
2022/05/02 01:53:16;;;;;;;0.95;0.85;;;11.60;99.80;;;;;;4425117;32;20160;-67
2022/05/02 01:55:42;;;;;;;0.73;0.40;;;11.50;99.90;;;;;;4422125;32;20076;-67
2022/05/02 01:58:07;;;;;;;0.37;0.37;;;11.40;99.90;;;;;;4412391;32;20521;-67
2022/05/02 02:00:33;;;;;;;0.70;0.60;;;11.20;99.90;;;;;;4409738;32;20082;-67
2022/05/02 02:02:58;;;;;;;0.60;0.40;;;11.10;99.90;;;;;;4423139;32;20080;-67
2022/05/02 02:05:55;;;;;;;0.73;0.45;;;11.10;99.90;;;;;;4425363;32;20150;-67
2022/05/02 02:08:09;;;;;;;0.30;0.30;;;11.20;99.90;;;;;;4420162;32;20097;-66
2022/05/02 02:10:35;;;;;;;0.40;0.40;;;11.20;99.90;;;;;;4421972;32;20525;-67
2022/05/02 02:13:00;;;;;;;0.70;0.70;;;11.30;99.90;;;;;;4423505;32;20072;-67
2022/05/02 02:15:26;;;;;;;1.05;0.93;;;11.30;99.90;;;;;;4424203;32;20160;-66
2022/05/02 02:17:51;;;;;;;3.83;1.33;;;11.30;99.90;;;;;;4424368;32;20085;-66
2022/05/02 02:20:17;;;;;;;4.57;0.60;;;11.10;99.90;;;;;;4425700;32;20076;-66
2022/05/02 02:22:42;;;;;;;0.40;0.40;;;11.00;99.90;;;;;;4423162;32;20119;-67
2022/05/02 02:25:08;;;;;;;0.45;0.45;;;11.00;99.90;;;;;;4423701;32;20096;-66
2022/05/02 02:27:34;;;;;;;0.40;0.40;;;11.10;99.90;;;;;;4417665;32;20467;-67
2022/05/02 02:29:59;;;;;;;0.40;0.40;;;11.10;99.90;;;;;;4407304;32;20426;-66
2022/05/02 02:32:26;;;;;;;0.57;0.40;;;11.00;99.90;;;;;;4424435;32;20073;-66
2022/05/02 02:34:51;;;;;;;0.40;0.40;;;10.90;99.90;;;;;;4424401;32;20513;-66
2022/05/02 02:37:17;;;;;;;0.55;0.55;;;10.70;99.90;;;;;;4434037;32;20074;-66
2022/05/02 02:39:43;;;;;;;0.75;0.50;;;10.70;99.90;;;;;;4436786;32;20603;-68
2022/05/02 02:42:09;;;;;;;0.30;0.30;;;10.70;99.90;;;;;;4436674;32;20147;-67
2022/05/02 02:44:35;;;;;;;0.50;0.50;;;10.80;99.90;;;;;;4423398;32;20128;-67
2022/05/02 02:47:01;;;;;;;0.57;0.57;;;10.70;99.90;;;;;;4438751;32;20116;-67
2022/05/02 02:49:26;;;;;;;0.30;0.30;;;10.60;99.90;;;;;;4440275;32;20085;-67
2022/05/02 02:51:52;;;;;;;0.40;0.40;;;10.50;99.90;;;;;;4421806;32;20567;-67
2022/05/02 02:54:17;;;;;;;6.75;0.95;;;10.60;99.90;;;;;;4438448;32;20077;-67
2022/05/02 02:56:43;;;;;;;0.52;0.52;;;10.70;99.90;;;;;;4436875;32;20069;-67
2022/05/02 02:59:09;;;;;;;1.77;1.27;;;10.50;99.90;;;;;;4418975;32;20485;-67
2022/05/02 03:01:35;;;;;;;0.47;0.47;;;10.40;99.90;;;;;;4434908;32;20108;-67
2022/05/02 03:06:01;;;;;;;0.40;0.40;;;10.40;99.90;;;;;;4438740;32;20064;-67
2022/05/02 03:06:46;;;;;;;1.80;1.30;;;10.40;99.90;;;;;;4424497;32;20244;-67
2022/05/02 03:09:12;;;;;;;0.60;0.60;;;10.40;99.90;;;;;;4436017;32;20116;-67
2022/05/02 03:11:38;;;;;;;0.73;0.70;;;10.30;99.90;;;;;;4439061;32;20492;-68
2022/05/02 03:14:03;;;;;;;0.30;0.30;;;10.30;99.90;;;;;;4438629;32;20069;-66
2022/05/02 03:16:29;;;;;;;0.45;0.45;;;10.30;99.90;;;;;;4437584;32;20561;-66
2022/05/02 03:18:54;;;;;;;0.82;0.60;;;10.20;99.90;;;;;;4438956;32;20109;-66
2022/05/02 03:21:20;;;;;;;4.15;1.50;;;10.10;99.90;;;;;;4440091;32;20397;-66
2022/05/02 03:23:45;;;;;;;0.20;0.20;;;10.10;99.90;;;;;;4439763;32;20073;-67
2022/05/02 03:26:10;;;;;;;0.50;0.50;;;10.10;99.90;;;;;;4437247;32;20084;-67
2022/05/02 03:28:36;;;;;;;0.70;0.70;;;10.00;99.90;;;;;;4425234;32;20478;-68
2022/05/02 03:31:01;;;;;;;0.28;0.28;;;10.00;99.90;;;;;;4428270;32;20090;-68
2022/05/02 03:33:27;;;;;;;1.25;0.77;;;10.10;99.90;;;;;;4438635;32;20123;-67
2022/05/02 03:35:52;;;;;;;0.30;0.30;;;9.90;99.90;;;;;;4439864;32;20538;-67
2022/05/02 03:38:18;;;;;;;0.40;0.40;;;9.60;99.90;;;;;;4437856;32;20077;-67
2022/05/02 03:40:43;;;;;;;1.27;0.68;;;9.50;99.90;;;;;;4439738;32;21579;-67
2022/05/02 03:43:09;;;;;;;1.60;0.55;;;9.30;99.90;;;;;;4439796;32;20081;-67
2022/05/02 03:45:34;;;;;;;0.88;0.88;;;9.20;99.90;;;;;;4439765;32;20124;-67
2022/05/02 03:48:00;;;;;;;0.30;0.30;;;9.20;99.90;;;;;;4440918;32;20469;-67
2022/05/02 03:50:25;;;;;;;0.40;0.40;;;9.20;99.90;;;;;;4440173;32;20073;-67
2022/05/02 03:52:51;;;;;;;0.37;0.37;;;9.20;99.90;;;;;;4439568;32;20139;-67
2022/05/02 03:55:16;;;;;;;0.40;0.40;;;9.10;99.90;;;;;;4442339;32;20080;-67
2022/05/02 03:57:42;;;;;;;6.65;1.85;;;9.20;99.90;;;;;;4435494;32;20749;-67
2022/05/02 04:00:08;;;;;;;0.47;0.47;;;9.40;99.90;;;;;;4409937;32;20170;-67
2022/05/02 04:02:34;;;;;;;0.15;0.15;;;9.50;99.90;;;;;;4442099;32;20065;-67
2022/05/02 04:05:00;;;;;;;0.40;0.40;;;9.50;99.90;;;;;;4441610;32;20085;-67
2022/05/02 04:07:25;;;;;;;0.70;0.60;;;9.50;99.90;;;;;;4443000;32;20065;-67
2022/05/02 04:09:51;;;;;;;0.40;0.40;;;9.40;99.90;;;;;;4438593;32;20122;-67
2022/05/02 04:12:16;;;;;;;1.65;0.70;;;9.50;99.90;;;;;;4438698;32;20185;-67
2022/05/02 04:14:42;;;;;;;0.70;0.70;;;9.60;99.90;;;;;;4439049;32;20094;-67
2022/05/02 04:17:09;;;;;;;1.45;0.73;;;9.70;99.90;;;;;;4439744;32;20073;-67
2022/05/02 04:19:35;;;;;;;0.55;0.55;;;9.50;99.90;;;;;;4437031;32;20107;-67
2022/05/02 04:22:00;;;;;;;1.95;1.10;;;9.50;99.90;;;;;;4421335;32;20101;-67
2022/05/02 04:24:26;;;;;;;12.43;3.30;;;9.40;99.90;;;;;;4382630;32;20502;-67
2022/05/02 04:26:51;;;;;;;0.30;0.30;;;9.20;99.90;;;;;;4375563;32;20546;-66
2022/05/02 04:29:17;;;;;;;21.80;0.70;;;9.20;99.90;;;;;;4359797;32;21081;-66
2022/05/02 04:31:42;;;;;;;0.30;0.30;;;9.30;99.90;;;;;;4375457;32;20085;-67
2022/05/02 04:34:08;;;;;;;0.30;0.30;;;9.40;99.90;;;;;;4427986;32;20074;-66
2022/05/02 04:36:33;;;;;;;3.12;0.70;;;9.60;99.90;;;;;;4439880;32;20129;-66
2022/05/02 04:38:59;;;;;;;0.55;0.55;;;9.70;99.90;;;;;;4439695;32;20065;-66
2022/05/02 04:41:24;;;;;;;4.60;1.52;;;9.80;99.90;;;;;;4435107;32;20386;-66
2022/05/02 04:43:52;;;;;;;0.50;0.50;;;9.60;99.90;;;;;;4437686;32;20089;-66
2022/05/02 04:46:19;;;;;;;0.47;0.47;;;9.40;99.90;;;;;;4439123;32;20073;-66
2022/05/02 04:48:45;;;;;;;0.30;0.30;;;9.40;99.90;;;;;;4440043;32;20235;-66
2022/05/02 04:51:10;;;;;;;0.50;0.50;;;9.50;99.90;;;;;;4438048;32;20056;-66
2022/05/02 04:53:36;;;;;;;0.37;0.37;;;9.60;99.90;;;;;;4396419;32;20219;-66
2022/05/02 04:56:02;;;;;;;0.60;0.60;;;9.70;99.90;;;;;;4408840;32;20870;-66
2022/05/02 04:58:28;;;;;;;3.95;0.40;;;9.80;99.90;;;;;;4424063;32;20110;-67
2022/05/02 05:00:53;;;;;;;0.90;0.90;;;9.90;99.90;;;;;;4419197;32;20076;-67
2022/05/02 05:03:20;;;;;;;0.75;0.75;;;10.00;99.90;;;;;;4409876;32;20604;-66
2022/05/02 05:05:46;;;;;;;4.00;0.55;;;10.10;99.90;;;;;;4384604;32;20134;-67
2022/05/02 05:08:13;;;;;;;0.60;0.60;;;10.20;99.90;;;;;;4363439;32;20081;-67
2022/05/02 05:10:52;;;;;;;0.30;0.30;;;10.20;99.90;;;;;;4363581;32;20375;-67
2022/05/02 05:13:24;;;;;;;0.75;0.50;;;10.30;99.90;;;;;;4372059;32;20117;-67
2022/05/02 05:16:22;;;;;;;0.65;0.65;;;10.40;99.90;;;;;;4401480;32;20097;-69
2022/05/02 05:19:23;;;;;;;1.60;0.75;;;10.50;99.90;;;;;;4342474;32;20949;-67
2022/05/02 05:22:29;;;;;;;0.50;0.50;;;10.60;99.90;;;;;;4310947;32;20550;-67
2022/05/02 05:25:34;;;;;;;0.40;0.40;;;10.80;99.90;;;;;;4273872;32;20264;-67
2022/05/02 05:28:37;;;;;;;0.75;0.62;;;10.90;99.90;;;;;;4293987;32;20298;-67
2022/05/02 05:31:21;;;;;;;1.37;0.85;;;11.10;99.90;;;;;;4342709;32;20553;-67
2022/05/02 05:33:56;;;;;;;2.70;0.70;;;11.10;99.90;;;;;;4350507;32;20561;-67
2022/05/02 05:36:31;;;;;;;2.35;0.80;;;11.20;99.90;;;;;;4318670;32;20418;-66
2022/05/02 05:39:06;;;;;;;15.70;1.20;;;11.30;99.90;;;;;;4335337;32;20440;-66
2022/05/02 05:41:39;;;;;;;1.12;1.05;;;11.30;99.90;;;;;;4351455;32;20247;-66
2022/05/02 05:44:16;;;;;;;1.00;0.60;;;11.40;99.90;;;;;;4357751;32;20096;-67
2022/05/02 05:47:04;;;;;;;1.85;0.82;;;11.50;99.90;;;;;;4405160;32;20089;-67
2022/05/02 05:49:54;;;;;;;0.50;0.50;;;11.60;99.90;;;;;;4384214;32;20419;-67
2022/05/02 05:52:40;;;;;;;1.65;1.02;;;11.60;99.90;;;;;;4380925;32;20482;-69
2022/05/02 05:55:10;;;;;;;10.23;0.70;;;11.70;99.90;;;;;;4406708;32;21169;-67
2022/05/02 05:57:53;;;;;;;0.82;0.82;;;11.80;99.90;;;;;;4404086;32;20118;-67
2022/05/02 06:00:19;;;;;;;3.62;1.10;;;11.90;99.90;;;;;;4390094;32;21094;-67
2022/05/02 06:02:58;;;;;;;0.30;0.30;;;12.00;99.90;;;;;;4381871;32;20896;-67
2022/05/02 06:05:23;;;;;;;0.30;0.30;;;12.10;99.90;;;;;;4378746;32;20337;-66
2022/05/02 06:07:52;;;;;;;0.40;0.40;;;12.20;99.90;;;;;;4391268;32;20409;-67
2022/05/02 06:10:18;;;;;;;1.33;0.80;;;12.40;99.90;;;;;;4400787;32;20513;-67
2022/05/02 06:12:45;;;;;;;0.50;0.50;;;12.40;99.50;;;;;;4402010;32;20100;-67
2022/05/02 06:18:32;;;;;;;6.45;0.57;;;12.50;97.70;;;;;;4381497;32;20362;-67
2022/05/02 06:20:47;;;;;;;0.30;0.30;;;12.50;98.90;;;;;;4373578;32;20145;-67
2022/05/02 06:23:14;;;;;;;3.00;0.62;;;12.70;97.70;;;;;;4397514;32;20500;-67
2022/05/02 06:25:41;;;;;;;0.40;0.40;;;12.70;97.60;;;;;;4398300;32;20234;-67
2022/05/02 06:28:08;;;;;;;0.70;0.70;;;12.80;97.80;;;;;;4405183;32;20140;-67
2022/05/02 06:30:36;;;;;;;0.40;0.40;;;12.70;99.20;;;;;;4392191;32;20809;-67
2022/05/02 06:33:08;;;;;;;0.40;0.40;;;12.80;98.20;;;;;;4377476;32;20263;-67
2022/05/02 06:35:40;;;;;;;0.40;0.40;;;12.80;97.10;;;;;;4370653;32;20938;-67
2022/05/02 06:38:12;;;;;;;22.23;3.70;;;12.90;96.60;;;;;;4389300;32;20089;-67
2022/05/02 06:40:49;;;;;;;0.40;0.40;;;13.00;96.80;;;;;;4397101;32;21077;-67
2022/05/02 06:43:39;;;;;;;0.95;0.82;;;13.20;96.20;;;;;;4396394;32;20125;-67
2022/05/02 06:46:15;;;;;;;0.30;0.30;;;13.30;95.80;;;;;;4378907;32;20171;-67
2022/05/02 06:48:47;;;;;;;0.35;0.35;;;13.40;94.30;;;;;;4384910;32;20105;-67
2022/05/02 06:51:19;;;;;;;0.60;0.60;;;13.60;93.80;;;;;;4385419;32;20307;-67
2022/05/02 06:54:21;;;;;;;1.25;0.93;;;13.60;93.90;;;;;;4393902;32;20254;-67
2022/05/02 06:56:56;;;;;;;0.40;0.40;;;13.70;93.70;;;;;;4392431;32;21588;-67
2022/05/02 06:59:49;;;;;;;0.70;0.70;;;13.70;94.00;;;;;;4391967;32;20100;-67
2022/05/02 07:02:48;;;;;;;1.67;0.85;;;13.90;93.20;;;;;;4377303;32;20200;-67
2022/05/02 07:05:54;;;;;;;0.70;0.60;;;13.90;93.30;;;;;;4365620;32;20167;-67
2022/05/02 07:08:28;;;;;;;0.50;0.50;;;14.00;93.30;;;;;;4375938;32;20817;-67
2022/05/02 07:11:02;;;;;;;0.65;0.50;;;14.10;94.20;;;;;;4402959;32;20116;-67
2022/05/02 07:13:34;;;;;;;1.95;0.43;;;14.10;94.00;;;;;;4407177;32;20875;-67
2022/05/02 07:16:25;;;;;;;0.40;0.40;;;14.10;93.30;;;;;;4407058;32;20213;-68
2022/05/02 07:19:11;;;;;;;0.37;0.37;;;14.20;94.00;;;;;;4381017;32;20092;-68
2022/05/02 07:21:53;;;;;;;3.50;0.75;;;14.30;94.20;;;;;;4397394;32;20218;-67
2022/05/02 07:24:45;;;;;;;0.62;0.62;;;14.50;94.10;;;;;;4398705;32;20113;-67
2022/05/02 07:27:23;;;;;;;0.40;0.40;;;14.50;93.80;;;;;;4391587;32;20187;-67
2022/05/02 07:29:50;;;;;;;0.40;0.40;;;14.50;93.60;;;;;;4390820;32;20108;-67
2022/05/02 07:32:21;;;;;;;0.30;0.30;;;14.60;93.00;;;;;;4349099;32;20935;-67
2022/05/02 07:34:49;;;;;;;3.25;0.90;;;14.60;93.20;;;;;;4343328;32;20465;-68
2022/05/02 07:37:18;;;;;;;4.22;1.37;;;14.80;93.70;;;;;;4345011;32;230848;-67
2022/05/02 07:39:47;;;;;;;1.35;0.93;;;14.80;93.70;;;;;;4381322;32;20568;-67
2022/05/02 07:42:15;;;;;;;0.35;0.35;;;15.00;93.20;;;;;;4368680;32;20262;-67
2022/05/02 07:44:43;;;;;;;0.65;0.65;;;15.10;92.90;;;;;;4385700;32;20113;-68
2022/05/02 07:47:11;;;;;;;0.47;0.47;;;15.20;92.90;;;;;;4380368;32;20081;-67
2022/05/02 07:49:39;;;;;;;0.35;0.35;;;15.30;92.70;;;;;;4365885;32;21657;-66
2022/05/02 07:52:06;;;;;;;0.30;0.30;;;15.40;92.70;;;;;;4343056;32;20089;-67
2022/05/02 07:54:40;;;;;;;0.40;0.40;;;15.60;92.80;;;;;;4359353;32;20824;-67
2022/05/02 07:57:07;;;;;;;24.23;2.40;;;15.60;92.00;;;;;;4373620;32;20208;-67
2022/05/02 07:59:36;;;;;;;0.65;0.65;;;15.60;92.00;;;;;;4374502;32;20533;-67
2022/05/02 08:02:04;;;;;;;0.60;0.60;;;15.80;92.20;;;;;;4357779;32;20179;-67
2022/05/02 08:04:30;;;;;;;0.45;0.45;;;16.00;92.20;;;;;;4357759;32;20764;-67
2022/05/02 08:07:04;;;;;;;0.40;0.40;;;16.10;92.20;;;;;;4361924;32;20517;-67
2022/05/02 08:09:53;;;;;;;0.40;0.40;;;16.20;92.40;;;;;;4377356;32;20081;-67
2022/05/02 08:12:40;;;;;;;0.68;0.65;;;16.10;91.40;;;;;;4386665;32;20357;-67
2022/05/02 08:15:13;;;;;;;0.98;0.35;;;16.10;92.30;;;;;;4380613;32;20388;-68
2022/05/02 08:18:19;;;;;;;0.40;0.40;;;16.30;92.40;;;;;;4379186;32;20449;-68
2022/05/02 08:21:09;;;;;;;0.32;0.32;;;16.50;92.50;;;;;;4374779;32;20697;-68
2022/05/02 08:27:35;;;;;;;0.60;0.60;;;16.60;92.10;;;;;;4366331;32;20125;-68
2022/05/02 08:29:29;;;;;;;0.40;0.40;;;16.60;91.60;;;;;;4356898;32;20113;-68
2022/05/02 08:32:07;;;;;;;1.17;0.77;;;16.60;91.60;;;;;;4366322;32;20826;-67
2022/05/02 08:34:44;;;;;;;0.65;0.40;;;16.50;92.60;;;;;;4358574;32;20971;-67
2022/05/02 08:37:22;;;;;;;0.30;0.30;;;16.60;92.00;;;;;;4357649;32;20133;-67
2022/05/02 08:40:09;;;;;;;0.45;0.45;;;16.60;92.70;;;;;;4379436;32;20122;-68
2022/05/02 08:42:56;;;;;;;4.78;1.02;;;16.70;91.70;;;;;;4368093;32;20089;-68
2022/05/02 08:45:54;;;;;;;0.60;0.60;;;16.80;91.00;;;;;;4365669;32;20126;-67
2022/05/02 08:49:58;;;;;;;1.52;0.90;;;17.00;91.20;;;;;;4364236;32;21182;-68
2022/05/02 08:52:14;;;;;;;3.20;0.95;;;17.10;90.70;;;;;;4354190;32;20142;-68
2022/05/02 08:54:52;;;;;;;0.35;0.35;;;17.00;90.00;;;;;;4379491;32;20269;-67
2022/05/02 08:57:35;;;;;;;0.40;0.40;;;17.10;91.40;;;;;;4378681;32;20128;-67
2022/05/02 09:00:04;;;;;;;0.30;0.30;;;17.20;90.90;;;;;;4378256;32;20090;-70
2022/05/02 09:02:55;;;;;;;0.50;0.50;;;17.40;89.90;;;;;;4371762;32;21012;-69
2022/05/02 09:05:46;;;;;;;0.40;0.40;;;17.40;90.10;;;;;;4335490;32;20363;-68
2022/05/02 09:08:32;;;;;;;1.15;0.82;;;17.50;89.50;;;;;;4364659;32;20568;-68
2022/05/02 09:11:37;;;;;;;1.08;0.62;;;17.60;90.60;;;;;;4373559;32;20863;-67
2022/05/02 09:14:24;;;;;;;0.40;0.40;;;17.70;90.10;;;;;;4364929;32;20438;-69
2022/05/02 09:17:12;;;;;;;0.45;0.45;;;17.90;88.30;;;;;;4385786;32;20509;-68
2022/05/02 09:20:06;;;;;;;0.40;0.40;;;18.00;89.50;;;;;;4363023;32;20473;-69
2022/05/02 09:22:50;;;;;;;0.30;0.30;;;18.10;88.70;;;;;;4364808;32;20718;-69
2022/05/02 09:25:44;;;;;;;0.40;0.40;;;18.20;88.40;;;;;;4351095;32;20889;-68
2022/05/02 09:28:20;;;;;;;0.75;0.70;;;18.20;87.00;;;;;;4347850;32;20976;-67
2022/05/02 09:31:15;;;;;;;1.02;0.55;;;18.20;90.10;;;;;;4354439;32;20512;-70
2022/05/02 09:34:09;;;;;;;0.50;0.50;;;18.40;87.50;;;;;;4341918;32;20223;-68
2022/05/02 09:37:04;;;;;;;0.68;0.65;;;18.30;86.80;;;;;;4365420;32;20164;-69
2022/05/02 09:39:46;;;;;;;0.50;0.50;;;18.20;88.50;;;;;;4378337;32;20117;-69
2022/05/02 09:42:41;;;;;;;0.68;0.68;;;18.50;87.80;;;;;;4377106;32;20149;-69
2022/05/02 09:51:10;;;;;;;;;;;19.00;84.20;;;;;;4386574;32;20094;-69
2022/05/02 09:54:05;;;;;;;0.80;0.80;;;18.90;83.80;;;;;;4371388;32;20704;-69
2022/05/02 09:56:43;;;;;;;0.37;0.37;;;19.20;85.20;;;;;;4377702;32;20770;-69
2022/05/02 09:59:22;;;;;;;0.95;0.77;;;19.20;83.90;;;;;;4385442;32;20200;-70
2022/05/02 10:01:54;;;;;;;0.65;0.65;;;19.40;85.30;;;;;;4383024;32;20089;-69
2022/05/02 10:04:31;;;;;;;1.48;0.88;;;19.60;84.30;;;;;;4381688;32;20789;-69
2022/05/02 10:07:05;;;;;;;0.73;0.73;;;19.60;83.50;;;;;;4389370;32;20627;-69
2022/05/02 10:10:05;;;;;;;0.35;0.35;;;19.60;82.10;;;;;;4399671;32;20122;-69
2022/05/02 10:12:59;;;;;;;0.43;0.43;;;19.50;83.40;;;;;;4381695;32;20255;-69
2022/05/02 10:15:54;;;;;;;0.50;0.50;;;19.70;83.50;;;;;;4373019;32;20625;-68
2022/05/02 10:18:43;;;;;;;2.30;0.88;;;19.50;82.60;;;;;;4365068;32;20551;-69
2022/05/02 10:21:19;;;;;;;0.50;0.50;;;19.50;82.00;;;;;;4367074;32;20156;-70
2022/05/02 10:23:47;;;;;;;2.30;0.82;;;19.40;83.80;;;;;;4365495;32;20238;-68
2022/05/02 10:26:29;;;;;;;0.40;0.40;;;19.60;82.70;;;;;;4361490;32;20901;-68
2022/05/02 10:29:22;;;;;;;0.40;0.40;;;19.80;82.30;;;;;;4381620;32;20294;-70
2022/05/02 10:31:56;;;;;;;0.40;0.40;;;19.90;79.80;;;;;;4370024;32;20112;-70
2022/05/02 10:34:28;;;;;;;0.90;0.77;;;19.90;84.20;;;;;;4380038;32;20351;-70
2022/05/02 10:36:55;;;;;;;0.37;0.37;;;20.60;79.30;;;;;;4379707;32;20214;-70
2022/05/02 10:39:47;;;;;;;0.43;0.40;;;21.30;77.10;;;;;;4391176;32;20352;-69
2022/05/02 10:42:18;;;;;;;2.50;1.20;;;21.40;78.60;;;;;;4376931;32;20511;-69
2022/05/02 10:44:49;;;;;;;;;;;21.10;76.00;;;;;;4384302;32;26846;-70
2022/05/02 10:47:19;;;;;;;0.30;0.30;;;20.70;77.70;;;;;;4385968;32;19953;-71
2022/05/02 10:50:24;;;;;;;0.50;0.50;;;20.70;77.30;;;;;;4376588;32;20159;-69
2022/05/02 10:53:01;;;;;;;1.30;0.77;;;20.70;80.30;;;;;;4371546;32;21517;-68
2022/05/02 10:55:32;;;;;;;6.55;1.45;;;21.00;77.30;;;;;;4343306;32;20090;-69
2022/05/02 10:58:00;;;;;;;;;;;21.10;76.60;;;;;;4367751;32;20478;-69
2022/05/02 11:00:26;;;;;;;0.50;0.50;;;21.20;76.30;;;;;;4369294;32;21768;-69
2022/05/02 11:03:12;;;;;;;0.40;0.40;;;21.20;76.50;;;;;;4369953;32;20288;-68
2022/05/02 11:06:02;;;;;;;0.65;0.62;;;21.60;75.80;;;;;;4368718;32;21072;-69
2022/05/02 11:08:49;;;;;;;0.47;0.47;;;21.50;76.00;;;;;;4385107;32;20086;-69
2022/05/02 11:11:27;;;;;;;0.40;0.40;;;21.50;75.80;;;;;;4387829;32;20181;-70
2022/05/02 11:14:03;;;;;;;9.30;1.20;;;21.60;77.10;;;;;;4383800;32;20835;-70
2022/05/02 11:16:53;;;;;;;0.20;0.20;;;22.20;77.20;;;;;;4392513;32;21147;-69
2022/05/02 11:20:46;;;;;;;4.62;0.70;;;22.90;74.80;;;;;;4380282;32;20199;-69
2022/05/02 11:22:41;;;;;;;0.50;0.50;;;23.10;71.20;;;;;;4357181;32;20232;-70
2022/05/02 11:25:26;;;;;;;0.57;0.57;;;23.10;72.50;;;;;;4363643;32;20259;-68
2022/05/02 11:28:07;;;;;;;0.30;0.30;;;23.20;73.50;;;;;;4373022;32;21212;-68
2022/05/02 11:30:44;;;;;;;0.30;0.30;;;23.60;73.10;;;;;;4367539;32;20286;-68
2022/05/02 11:33:16;;;;;;;2.00;1.00;;;23.70;71.90;;;;;;4371171;32;20144;-69
2022/05/02 11:35:48;;;;;;;0.30;0.30;;;23.90;70.60;;;;;;4376763;32;20100;-68
2022/05/02 11:38:33;;;;;;;0.30;0.30;;;24.10;69.50;;;;;;4379750;32;20098;-69
2022/05/02 11:41:18;;;;;;;2.72;0.95;;;24.70;69.10;;;;;;4368618;32;20370;-68
2022/05/02 11:43:45;;;;;;;0.82;0.60;;;24.80;68.60;;;;;;4364333;32;20117;-67
2022/05/02 11:46:15;;;;;;;1.20;0.77;;;24.80;68.70;;;;;;4352793;32;20356;-67
2022/05/02 11:49:11;;;;;;;0.20;0.20;;;24.40;69.20;;;;;;4345327;32;20152;-67
2022/05/02 11:51:43;;;;;;;0.30;0.30;;;24.40;69.50;;;;;;4347646;32;20156;-67
2022/05/02 11:54:34;;;;;;;0.25;0.25;;;24.50;67.90;;;;;;4365369;32;20133;-68
2022/05/02 11:57:22;;;;;;;0.35;0.35;;;24.80;67.90;;;;;;4345681;32;20108;-68
2022/05/02 12:00:06;;;;;;;0.32;0.32;;;25.40;66.10;;;;;;4382001;32;20464;-68
2022/05/02 12:02:42;;;;;;;0.70;0.70;;;25.40;65.80;;;;;;4357731;32;20262;-68
2022/05/02 12:05:27;;;;;;;0.40;0.40;;;25.20;65.50;;;;;;4365301;32;21075;-68
2022/05/02 12:07:55;;;;;;;0.20;0.20;;;25.00;67.70;;;;;;4376490;32;21311;-69
2022/05/02 12:10:36;;;;;;;0.93;0.40;;;24.90;66.50;;;;;;4390084;32;20974;-68
2022/05/02 12:13:04;;;;;;;0.22;0.15;;;24.90;64.60;;;;;;4375616;32;20097;-69
2022/05/02 12:15:30;;;;;;;0.32;0.32;;;24.70;66.50;;;;;;4379710;32;20201;-68
2022/05/02 12:18:01;;;;;;;0.30;0.30;;;25.30;64.70;;;;;;4369812;32;20232;-68
2022/05/02 12:20:30;;;;;;;0.13;0.13;;;25.00;63.90;;;;;;4379011;32;20604;-68
2022/05/02 12:23:19;;;;;;;0.40;0.40;;;24.30;64.70;;;;;;4378785;32;20409;-70
2022/05/02 12:25:49;;;;;;;4.47;1.40;;;24.30;65.30;;;;;;4342427;32;20297;-68
2022/05/02 12:28:18;;;;;;;0.17;0.17;;;24.70;64.10;;;;;;4372687;32;20058;-68
2022/05/02 12:30:50;;;;;;;0.35;0.35;;;25.10;63.60;;;;;;4362307;32;20160;-70
2022/05/02 12:33:19;;;;;;;1.30;0.52;;;25.50;62.70;;;;;;4361209;32;20348;-68
2022/05/02 12:35:45;;;;;;;0.68;0.50;;;26.00;62.40;;;;;;4370624;32;20173;-68
2022/05/02 12:38:16;;;;;;;4.20;0.88;;;26.00;61.90;;;;;;4390565;32;20592;-68
2022/05/02 12:40:49;;;;;;;0.60;0.28;;;26.30;62.20;;;;;;4409738;32;20074;-68
2022/05/02 12:43:24;;;;;;;2.42;1.25;;;25.50;62.00;;;;;;4396406;32;20269;-68
2022/05/02 12:45:50;;;;;;;0.10;0.10;;;24.30;65.00;;;;;;4406633;32;20253;-67
2022/05/02 12:48:35;;;;;;;0.52;0.37;;;23.60;66.20;;;;;;4401189;32;20395;-67
2022/05/02 12:51:01;;;;;;;0.40;0.40;;;22.90;67.80;;;;;;4396019;32;20771;-67
2022/05/02 12:54:27;;;;;;;0.52;0.43;;;22.50;69.10;;;;;;4394876;32;20448;-67
2022/05/02 12:56:14;;;;;;;16.27;1.87;;;22.20;70.70;;;;;;4371374;32;20185;-67
2022/05/02 13:00:45;;;;;;;0.43;0.43;;;22.00;73.60;;;;;;4407987;32;20139;-67
2022/05/02 13:01:42;;;;;;;0.30;0.30;;;23.50;70.90;;;;;;4382681;32;20088;-68
2022/05/02 13:04:16;;;;;;;0.20;0.20;;;24.20;67.30;;;;;;4394149;32;20330;-68
2022/05/02 13:06:42;;;;;;;0.40;0.40;;;25.40;64.70;;;;;;4402378;32;20226;-68
2022/05/02 13:09:14;;;;;;;0.17;0.17;;;26.00;61.90;;;;;;4400158;32;20748;-68
2022/05/02 13:11:40;;;;;;;0.37;0.25;;;26.00;62.20;;;;;;4397992;32;20139;-67
2022/05/02 13:14:06;;;;;;;0.20;0.20;;;26.50;61.70;;;;;;4404437;32;20097;-68
2022/05/02 13:16:42;;;;;;;4.70;0.22;;;26.80;59.80;;;;;;4400676;32;20081;-68
2022/05/02 13:19:08;;;;;;;0.25;0.25;;;26.40;62.60;;;;;;4400706;32;20638;-68
2022/05/02 13:21:34;;;;;;;0.10;0.10;;;26.30;62.30;;;;;;4409517;32;20073;-67
2022/05/02 13:24:11;;;;;;;0.88;0.37;;;26.60;60.90;;;;;;4395767;32;20279;-68
2022/05/02 13:26:53;;;;;;;0.25;0.20;;;27.30;59.90;;;;;;4387860;32;20093;-68
2022/05/02 13:29:28;;;;;;;0.20;0.20;;;27.10;60.40;;;;;;4414347;32;20088;-67
2022/05/02 13:32:02;;;;;;;0.10;0.10;;;26.40;61.30;;;;;;4388430;32;20405;-66
2022/05/02 13:34:36;;;;;;;0.20;0.20;;;26.20;62.60;;;;;;4396348;32;20122;-67
2022/05/02 13:37:10;;;;;;;0.17;0.17;;;26.10;60.40;;;;;;4402486;32;20152;-66